Pagrindinis puslapis
METAR-TAF:

METAR-TAF

Oro uostai :

Noatak, Aliaska, Jungtinės Amerikos Valstijos

platuma: 67-34N, ilguma: 162-59W, Aukštis: 27 m

Dabartinis oras

Ataskaita buvo paskelbta 23 minutes, ne 03:56 UTC
Vėjas 9 kt iš Šiaurės Vakarų
Temperatūra 14°C
Drėgmė 55%
Slėgis 1004 hPa
Matomumas: 16.1 km
Giedras dangus

METAR: PAWN 160356Z AUTO 32009KT 10SM CLR 14/05 A2965 RMK AO2 SLP051 T01390050

Laikas: 20:19 (04:19 UTC)


TAF: trūkstamas

Orai ataskaitas ir orų prognozės (METAR, TAF).

turimą stotys yra geltonos ir raudonos taškus žemėlapyje.

Perkelti pele per norėdami pamatyti stoties vardą.

Tada spustelėkite, norėdami matyti oro stebėjimo ir prognozės.

Norėdami pakeisti žemėlapį: spustelėkite ant žalios mygtukų su juodo kryžiaus žemyn,; žalią mygtuką su brūkšneliu, jei norite nutolinti; arba žalių rodyklių gretimoms žemėlapius.


METAR-TAF: